Time;durP1;ratioP1;P1;durP2;ratioP2;P2;SDS_P1;SDS_P2;PMS_P1;PMS_P2;Temp;Humidity;BMP_temperature;BMP_pressure;BME280_temperature;BME280_humidity;BME280_pressure;Samples;Min_cycle;Max_cycle;Signal;HPM_P1;HPM_P2
2021/11/04 00:00:31;;;;;;;64.73;21.00;;;;;;;4.55;100.00;100214.56;2090789;28;20013;-66
2021/11/04 00:01:32;;;;;;;61.33;23.25;;;;;;;4.53;100.00;100208.63;2090874;28;20052;-66
2021/11/04 00:02:32;;;;;;;70.67;23.40;;;;;;;4.53;100.00;100206.03;2091423;28;20029;-66
2021/11/04 00:03:32;;;;;;;30.33;19.07;;;;;;;4.49;100.00;100207.00;2091540;28;20056;-66
2021/11/04 00:04:33;;;;;;;46.43;22.67;;;;;;;4.47;100.00;100206.19;2091409;28;20029;-66
2021/11/04 00:05:33;;;;;;;53.03;19.93;;;;;;;4.46;100.00;100201.91;2090742;28;20167;-66
2021/11/04 00:06:34;;;;;;;49.67;22.70;;;;;;;4.46;100.00;100200.19;2090786;28;20481;-66
2021/11/04 00:07:34;;;;;;;53.50;23.73;;;;;;;4.47;100.00;100201.03;2091437;28;20028;-66
2021/11/04 00:08:35;;;;;;;52.97;22.23;;;;;;;4.42;100.00;100198.59;2091373;28;20044;-66
2021/11/04 00:09:35;;;;;;;40.27;19.80;;;;;;;4.41;100.00;100196.03;2091464;28;20103;-66
2021/11/04 00:10:35;;;;;;;47.30;22.93;;;;;;;4.41;100.00;100201.22;2090690;28;20029;-66
2021/11/04 00:11:36;;;;;;;42.97;22.77;;;;;;;4.41;100.00;100198.63;2090690;28;20041;-66
2021/11/04 00:12:36;;;;;;;36.03;20.03;;;;;;;4.38;100.00;100195.22;2090856;28;20025;-66
2021/11/04 00:13:37;;;;;;;46.00;24.00;;;;;;;4.37;100.00;100196.13;2091331;28;20020;-66
2021/11/04 00:14:37;;;;;;;39.40;21.17;;;;;;;4.36;100.00;100188.41;2091408;28;20025;-66
2021/11/04 00:15:37;;;;;;;59.27;24.40;;;;;;;4.34;100.00;100198.78;2091263;28;20098;-66
2021/11/04 00:16:37;;;;;;;53.50;25.47;;;;;;;4.36;100.00;100197.00;2091355;28;20025;-66
2021/11/04 00:17:38;;;;;;;52.83;22.37;;;;;;;4.36;100.00;100189.25;2091314;28;20067;-66
2021/11/04 00:18:39;;;;;;;53.42;24.77;;;;;;;4.37;100.00;100190.94;2091219;28;20016;-66
2021/11/04 00:19:40;;;;;;;53.53;24.67;;;;;;;4.35;100.00;100184.97;2091319;28;20025;-66
2021/11/04 00:20:40;;;;;;;47.97;26.03;;;;;;;4.35;100.00;100181.56;2091279;28;20059;-66
2021/11/04 00:21:41;;;;;;;51.13;24.03;;;;;;;4.34;100.00;100188.44;2091285;28;20017;-66
2021/11/04 00:22:42;;;;;;;;;;;;;;;4.35;100.00;100182.38;2091513;28;20668;-66
2021/11/04 00:23:42;;;;;;;42.13;18.60;;;;;;;4.33;100.00;100179.00;2090565;28;20048;-67
2021/11/04 00:24:42;;;;;;;52.10;21.73;;;;;;;4.30;100.00;100181.66;2090698;28;20512;-66
2021/11/04 00:25:43;;;;;;;65.60;24.10;;;;;;;4.31;100.00;100183.34;2090560;28;20029;-66
2021/11/04 00:26:43;;;;;;;61.77;25.70;;;;;;;4.30;100.00;100178.22;2091239;28;20052;-66
2021/11/04 00:27:44;;;;;;;48.78;23.35;;;;;;;4.30;100.00;100186.84;2091228;28;20025;-66
2021/11/04 00:28:44;;;;;;;45.20;22.33;;;;;;;4.29;100.00;100187.72;2090553;28;20029;-67
2021/11/04 00:29:44;;;;;;;54.27;24.07;;;;;;;4.31;100.00;100185.94;2090615;28;20047;-67
2021/11/04 00:30:46;;;;;;;55.93;25.60;;;;;;;4.33;100.00;100188.47;2091090;28;20017;-67
2021/11/04 00:31:46;;;;;;;55.63;23.58;;;;;;;4.34;100.00;100190.16;2091236;28;20478;-66
2021/11/04 00:32:49;;;;;;;50.80;23.10;;;;;;;4.34;100.00;100179.84;2091172;28;20021;-66
2021/11/04 00:33:52;;;;;;;58.72;24.35;;;;;;;4.33;100.00;100178.16;2091154;28;20279;-66
2021/11/04 00:34:53;;;;;;;56.60;24.10;;;;;;;4.34;100.00;100185.00;2091262;28;20478;-66
2021/11/04 00:35:53;;;;;;;56.03;23.63;;;;;;;4.35;100.00;100177.22;2090494;28;20021;-67
2021/11/04 00:36:54;;;;;;;54.30;23.73;;;;;;;4.37;100.00;100178.03;2090597;28;20399;-67
2021/11/04 00:37:54;;;;;;;59.67;25.17;;;;;;;4.39;100.00;100172.81;2091132;28;20028;-68
2021/11/04 00:38:54;;;;;;;58.07;23.87;;;;;;;4.39;100.00;100178.00;2091210;28;20287;-67
2021/11/04 00:39:54;;;;;;;46.53;22.40;;;;;;;4.36;100.00;100173.75;2091131;28;20032;-67
2021/11/04 00:40:55;;;;;;;55.83;23.43;;;;;;;4.35;100.00;100179.78;2091164;28;20378;-67
2021/11/04 00:41:55;;;;;;;53.78;23.52;;;;;;;4.35;100.00;100176.38;2091080;28;20025;-67
2021/11/04 00:42:56;;;;;;;53.33;22.53;;;;;;;4.32;100.00;100174.72;2091040;28;20029;-67
2021/11/04 00:44:01;;;;;;;51.30;22.38;;;;;;;4.33;100.00;100172.97;2091080;28;20033;-67
2021/11/04 00:45:02;;;;;;;57.35;22.85;;;;;;;4.30;100.00;100171.34;2091095;28;20021;-66
2021/11/04 00:46:02;;;;;;;96.30;24.35;;;;;;;4.28;100.00;100169.69;2091006;28;20072;-66
2021/11/04 00:47:03;;;;;;;52.50;19.83;;;;;;;4.27;100.00;100168.81;2090434;28;20036;-66
2021/11/04 00:48:03;;;;;;;45.07;21.33;;;;;;;4.25;100.00;100170.63;2090473;28;20037;-66
2021/11/04 00:49:04;;;;;;;64.27;24.57;;;;;;;4.23;100.00;100169.78;2090403;28;20783;-66
2021/11/04 00:50:06;;;;;;;60.77;22.03;;;;;;;4.23;100.00;100169.78;2090485;28;20029;-65
2021/11/04 00:51:06;;;;;;;50.67;20.60;;;;;;;4.22;100.00;100171.56;2091032;28;20028;-66
2021/11/04 00:52:06;;;;;;;69.23;22.93;;;;;;;4.23;100.00;100173.25;2090433;28;20478;-66
2021/11/04 00:53:07;;;;;;;50.63;25.20;;;;;;;4.25;100.00;100173.19;2090455;28;20027;-66
2021/11/04 00:54:07;;;;;;;67.73;24.00;;;;;;;4.26;100.00;100172.31;2091106;28;20021;-66
2021/11/04 00:55:09;;;;;;;63.30;22.93;;;;;;;4.26;100.00;100177.47;2090923;28;20047;-66
2021/11/04 00:56:10;;;;;;;70.95;23.23;;;;;;;4.25;100.00;100171.44;2090329;28;20020;-66
2021/11/04 00:57:10;;;;;;;53.63;22.80;;;;;;;4.27;100.00;100174.00;2090458;28;20025;-66
2021/11/04 00:58:10;;;;;;;70.90;23.50;;;;;;;4.25;100.00;100174.03;2090382;28;20112;-66
2021/11/04 00:59:10;;;;;;;60.10;22.73;;;;;;;4.25;100.00;100176.63;2090512;28;20025;-66
2021/11/04 01:00:13;;;;;;;96.37;27.03;;;;;;;4.26;100.00;100172.31;2090965;28;20039;-66
2021/11/04 01:01:13;;;;;;;74.95;23.33;;;;;;;4.26;100.00;100172.31;2091007;28;20056;-67
2021/11/04 01:02:14;;;;;;;87.07;22.93;;;;;;;4.27;100.00;100171.41;2090998;28;20028;-66
2021/11/04 01:03:14;;;;;;;47.53;20.97;;;;;;;4.25;100.00;100176.63;2090985;28;20111;-67
2021/11/04 01:04:14;;;;;;;77.53;24.77;;;;;;;4.27;100.00;100183.50;2091032;28;20078;-66
2021/11/04 01:05:16;;;;;;;67.67;23.80;;;;;;;4.28;100.00;100191.22;2090855;28;20032;-68
2021/11/04 01:06:18;;;;;;;58.22;23.63;;;;;;;4.28;100.00;100186.03;2090946;28;20057;-66
2021/11/04 01:07:19;;;;;;;75.93;25.30;;;;;;;4.29;100.00;100186.88;2090869;28;20025;-66
2021/11/04 01:08:19;;;;;;;64.38;22.27;;;;;;;4.28;100.00;100188.63;2090945;28;20132;-66
2021/11/04 01:09:20;;;;;;;55.87;20.10;;;;;;;4.29;100.00;100187.72;2090953;28;20513;-67
2021/11/04 01:10:20;;;;;;;84.13;23.80;;;;;;;4.31;100.00;100190.28;2090887;28;20493;-67
2021/11/04 01:11:22;;;;;;;59.53;22.80;;;;;;;4.32;100.00;100186.78;2090893;28;20028;-67
2021/11/04 01:12:23;;;;;;;67.85;25.42;;;;;;;4.34;100.00;100187.59;2090859;28;20082;-66
2021/11/04 01:13:23;;;;;;;45.00;20.80;;;;;;;4.35;100.00;100192.72;2090945;28;20033;-66
2021/11/04 01:14:24;;;;;;;46.17;22.83;;;;;;;4.36;100.00;100189.25;2090940;28;20060;-66
2021/11/04 01:15:24;;;;;;;51.70;21.27;;;;;;;4.40;100.00;100194.31;2090862;28;20056;-66
2021/11/04 01:16:24;;;;;;;60.40;23.33;;;;;;;4.38;100.00;100192.63;2090256;28;20811;-66
2021/11/04 01:17:25;;;;;;;66.03;23.60;;;;;;;4.37;100.00;100196.13;2090256;28;20033;-66
2021/11/04 01:18:25;;;;;;;63.42;22.67;;;;;;;4.37;100.00;100195.25;2090892;28;20488;-66
2021/11/04 01:19:25;;;;;;;79.43;23.47;;;;;;;4.37;100.00;100195.25;2090141;28;20053;-67
2021/11/04 01:20:26;;;;;;;110.53;25.10;;;;;;;4.36;100.00;100189.25;2090156;28;20024;-66
2021/11/04 01:21:26;;;;;;;77.95;21.90;;;;;;;4.35;100.00;100195.28;2090196;28;20048;-66
2021/11/04 01:22:26;;;;;;;104.50;27.63;;;;;;;4.34;100.00;100191.03;2089972;28;20032;-66
2021/11/04 01:23:27;;;;;;;87.03;24.27;;;;;;;4.30;100.00;100185.97;2090177;28;20107;-66
2021/11/04 01:24:27;;;;;;;114.27;27.80;;;;;;;4.25;100.00;100180.94;2090025;28;20033;-66
2021/11/04 01:25:28;;;;;;;92.27;24.07;;;;;;;4.23;100.00;100177.53;2090083;28;20112;-68
2021/11/04 01:26:28;;;;;;;74.47;22.00;;;;;;;4.19;100.00;100175.94;2090766;28;20032;-66
2021/11/04 01:27:28;;;;;;;71.87;22.27;;;;;;;4.18;100.00;100169.91;2090304;28;20810;-66
2021/11/04 01:28:29;;;;;;;88.97;23.90;;;;;;;4.21;100.00;100169.84;2090690;28;20048;-67
2021/11/04 01:29:29;;;;;;;116.00;24.53;;;;;;;4.22;100.00;100171.56;2090130;28;20288;-67
2021/11/04 01:30:29;;;;;;;99.33;24.20;;;;;;;4.22;100.00;100166.38;2090211;28;20036;-66
2021/11/04 01:31:30;;;;;;;86.50;22.93;;;;;;;4.24;100.00;100168.91;2090689;28;20021;-67
2021/11/04 01:32:30;;;;;;;104.93;24.80;;;;;;;4.26;100.00;100167.13;2090812;28;20025;-66
2021/11/04 01:33:30;;;;;;;55.93;20.77;;;;;;;4.28;100.00;100167.97;2090707;28;20094;-66
2021/11/04 01:34:30;;;;;;;99.03;23.43;;;;;;;4.29;100.00;100164.47;2090720;28;20029;-66
2021/11/04 01:35:32;;;;;;;111.47;23.73;;;;;;;4.26;100.00;100167.13;2090717;28;20031;-65
2021/11/04 01:36:32;;;;;;;92.97;23.98;;;;;;;4.25;100.00;100166.28;2090698;28;20032;-67
2021/11/04 01:37:33;;;;;;;105.17;26.07;;;;;;;4.27;100.00;100170.59;2090708;28;20390;-67
2021/11/04 01:38:33;;;;;;;87.60;23.42;;;;;;;4.26;100.00;100172.31;2090684;28;20465;-66
2021/11/04 01:39:33;;;;;;;75.13;21.50;;;;;;;4.24;100.00;100168.91;2090714;28;20056;-66
2021/11/04 01:40:35;;;;;;;93.00;24.63;;;;;;;4.24;100.00;100174.06;2090693;28;20025;-67
2021/11/04 01:41:36;;;;;;;83.13;23.58;;;;;;;4.26;100.00;100167.13;2089915;28;20100;-66
2021/11/04 01:42:36;;;;;;;94.17;23.60;;;;;;;4.28;100.00;100167.97;2081796;28;20080;-66
2021/11/04 01:43:37;;;;;;;97.83;24.10;;;;;;;4.30;100.00;100168.75;2089941;28;20504;-66
2021/11/04 01:44:37;;;;;;;94.18;24.05;;;;;;;4.30;100.00;100168.75;2090683;28;20806;-66
2021/11/04 01:45:37;;;;;;;88.03;25.33;;;;;;;4.30;100.00;100163.59;2090585;28;20052;-66
2021/11/04 01:46:38;;;;;;;84.37;23.53;;;;;;;4.31;100.00;100170.44;2090659;28;20389;-66
2021/11/04 01:47:40;;;;;;;90.15;24.65;;;;;;;4.32;100.00;100166.97;2090662;28;20051;-66
2021/11/04 01:48:41;;;;;;;74.97;22.42;;;;;;;4.34;100.00;100165.19;2090580;28;20028;-66
2021/11/04 01:49:42;;;;;;;74.97;23.17;;;;;;;4.36;100.00;100166.00;2090667;28;20448;-66
2021/11/04 01:50:43;;;;;;;73.30;23.08;;;;;;;4.39;100.00;100170.25;2090636;28;20051;-67
2021/11/04 01:51:44;;;;;;;54.50;21.95;;;;;;;4.40;100.00;100169.34;2090603;28;20382;-66
2021/11/04 01:52:44;;;;;;;;;;;;;;;4.45;100.00;100166.66;2091009;28;20401;-65
2021/11/04 01:53:46;;;;;;;65.65;19.73;;;;;;;4.43;100.00;100161.50;2089801;28;19952;-65
2021/11/04 01:54:46;;;;;;;46.03;20.40;;;;;;;4.41;100.00;100159.88;2089835;28;20107;-66
2021/11/04 01:55:48;;;;;;;50.27;19.93;;;;;;;4.40;100.00;100160.72;2090488;28;20020;-66
2021/11/04 01:56:48;;;;;;;46.35;18.63;;;;;;;4.36;100.00;100163.44;2090512;28;20009;-66
2021/11/04 01:57:49;;;;;;;23.30;13.97;;;;;;;4.34;100.00;100159.16;2090519;28;20024;-66
2021/11/04 01:58:49;;;;;;;35.15;16.73;;;;;;;4.31;100.00;100169.59;2090608;28;20032;-66
2021/11/04 01:59:50;;;;;;;56.50;20.70;;;;;;;4.30;100.00;100173.91;2089880;28;20021;-65
2021/11/04 02:00:52;;;;;;;63.23;21.80;;;;;;;4.32;100.00;100166.97;2089963;28;20486;-66
2021/11/04 02:02:18;;;;;;;67.13;22.58;;;;;;;4.36;100.00;100168.59;2090431;28;20025;-66
2021/11/04 02:03:24;;;;;;;59.65;19.95;;;;;;;4.37;100.00;100167.69;2087776;28;20401;-66
2021/11/04 02:04:35;;;;;;;50.13;20.92;;;;;;;4.40;100.00;100165.91;2090425;28;20413;-66
2021/11/04 02:06:03;;;;;;;38.70;17.02;;;;;;;4.37;100.00;100172.00;2090375;28;20025;-66
2021/11/04 02:07:16;;;;;;;43.30;17.58;;;;;;;4.34;100.00;100170.34;2090449;28;20029;-66
2021/11/04 02:08:30;;;;;;;63.33;19.10;;;;;;;4.34;100.00;100175.53;2090376;28;20390;-66
2021/11/04 02:09:43;;;;;;;54.60;21.08;;;;;;;4.35;100.00;100178.97;2090454;28;20028;-66
2021/11/04 02:10:50;;;;;;;58.50;20.08;;;;;;;4.33;100.00;100166.09;2089757;28;20025;-66
2021/11/04 02:12:01;;;;;;;52.83;19.60;;;;;;;4.34;100.00;100169.50;2089861;28;20025;-66
2021/11/04 02:13:23;;;;;;;50.25;18.90;;;;;;;4.34;100.00;100172.09;2090428;28;20087;-66
2021/11/04 02:14:27;;;;;;;57.30;17.20;;;;;;;4.32;100.00;100168.72;2090423;28;20502;-66
2021/11/04 02:15:32;;;;;;;57.67;18.30;;;;;;;4.32;100.00;100173.88;2090375;28;20159;-66
2021/11/04 02:16:34;;;;;;;36.67;16.77;;;;;;;4.31;100.00;100175.59;2090358;28;20112;-68
2021/11/04 02:17:36;;;;;;;57.15;20.02;;;;;;;4.32;100.00;100172.16;2090364;28;20492;-66
2021/11/04 02:18:38;;;;;;;46.45;18.25;;;;;;;4.32;100.00;100172.16;2090333;28;20021;-66
2021/11/04 02:19:53;;;;;;;48.22;19.77;;;;;;;4.34;100.00;100164.34;2090276;28;20028;-66
2021/11/04 02:20:53;;;;;;;83.00;20.83;;;;;;;4.30;100.00;100168.75;2090333;28;20028;-66
2021/11/04 02:21:57;;;;;;;68.63;20.30;;;;;;;4.32;100.00;100166.13;2090403;28;20490;-66
2021/11/04 02:23:04;;;;;;;50.75;19.25;;;;;;;4.34;100.00;100177.25;2089507;28;20379;-66
2021/11/04 02:24:24;;;;;;;50.50;17.50;;;;;;;4.33;100.00;100172.97;2089932;28;20099;-65
2021/11/04 02:25:30;;;;;;;56.97;19.75;;;;;;;4.32;100.00;100173.88;2090284;28;20020;-65
2021/11/04 02:26:33;;;;;;;72.60;18.25;;;;;;;4.29;100.00;100172.22;2090305;28;20033;-66
2021/11/04 02:27:34;;;;;;;33.40;15.65;;;;;;;4.26;100.00;100177.47;2090325;28;20047;-65
2021/11/04 02:28:37;;;;;;;;;;;;;;;4.27;100.00;100180.91;2090708;28;20029;-66
2021/11/04 02:29:43;;;;;;;45.20;15.10;;;;;;;4.25;100.00;100180.94;2090229;28;20432;-67
2021/11/04 02:30:45;;;;;;;68.80;20.17;;;;;;;4.26;100.00;100177.47;2090258;28;20037;-66
2021/11/04 02:31:47;;;;;;;61.85;18.50;;;;;;;4.28;100.00;100180.00;2089489;28;20025;-66
2021/11/04 02:32:49;;;;;;;48.80;17.52;;;;;;;4.30;100.00;100183.38;2089572;28;20049;-66
2021/11/04 02:33:51;;;;;;;65.88;20.08;;;;;;;4.29;100.00;100179.97;2090305;28;20017;-66
2021/11/04 02:34:52;;;;;;;;;;;;;;;4.28;100.00;100177.44;2090765;28;20028;-66
2021/11/04 02:35:53;;;;;;;59.42;15.30;;;;;;;4.27;100.00;100179.16;2090284;28;19912;-66
2021/11/04 02:36:55;;;;;;;;;;;;;;;4.29;100.00;100176.53;2090706;28;20025;-66
2021/11/04 02:37:56;;;;;;;67.63;16.77;;;;;;;4.26;100.00;100177.47;2090245;28;19920;-66
2021/11/04 02:38:57;;;;;;;44.50;15.80;;;;;;;4.26;100.00;100177.47;2090026;28;20048;-66
2021/11/04 02:39:58;;;;;;;58.17;16.52;;;;;;;4.24;100.00;100177.50;2089645;28;20025;-66
2021/11/04 02:41:00;;;;;;;87.50;18.55;;;;;;;4.23;100.00;100174.97;2089568;28;20024;-66
2021/11/04 02:42:02;;;;;;;61.28;19.23;;;;;;;4.23;100.00;100177.53;2089663;28;20172;-66
2021/11/04 02:43:03;;;;;;;64.88;18.73;;;;;;;4.21;100.00;100184.50;2090205;28;20482;-67
2021/11/04 02:44:09;;;;;;;46.00;17.17;;;;;;;4.20;100.00;100186.22;2089431;28;20025;-66
2021/11/04 02:45:11;;;;;;;57.38;17.67;;;;;;;4.19;100.00;100183.69;2089681;28;20029;-67
2021/11/04 02:46:12;;;;;;;45.85;16.50;;;;;;;4.18;100.00;100184.56;2090120;28;20104;-66
2021/11/04 02:47:13;;;;;;;55.60;17.75;;;;;;;4.16;100.00;100181.19;2090265;28;20508;-67
2021/11/04 02:48:17;;;;;;;41.90;16.87;;;;;;;4.15;100.00;100187.25;2090301;28;20040;-67
2021/11/04 02:49:17;;;;;;;60.38;17.48;;;;;;;4.16;100.00;100182.03;2090172;28;20778;-66
2021/11/04 02:50:19;;;;;;;66.53;18.03;;;;;;;4.18;100.00;100188.00;2090274;28;20031;-66
2021/11/04 02:51:19;;;;;;;63.70;18.55;;;;;;;4.21;100.00;100189.66;2090151;28;20031;-67
2021/11/04 02:52:19;;;;;;;76.40;18.83;;;;;;;4.22;100.00;100188.78;2090268;28;20043;-67
2021/11/04 02:53:23;;;;;;;71.07;20.37;;;;;;;4.23;100.00;100182.72;2090160;28;20494;-66
2021/11/04 02:54:23;;;;;;;79.75;19.73;;;;;;;4.25;100.00;100186.13;2090145;28;20275;-66
2021/11/04 02:55:38;;;;;;;68.83;18.57;;;;;;;4.27;100.00;100191.25;2089530;28;20028;-67
2021/11/04 02:56:46;;;;;;;81.20;17.85;;;;;;;4.24;100.00;100190.44;2089636;28;20033;-67
2021/11/04 02:57:49;;;;;;;58.80;18.13;;;;;;;4.22;100.00;100191.34;2090150;28;20017;-67
2021/11/04 02:58:49;;;;;;;52.40;17.13;;;;;;;4.20;100.00;100193.13;2089428;28;20016;-67
2021/11/04 02:59:49;;;;;;;69.30;19.37;;;;;;;4.20;100.00;100191.41;2089540;28;20510;-67
2021/11/04 03:00:59;;;;;;;67.13;19.77;;;;;;;4.22;100.00;100191.34;2090146;28;20025;-67
2021/11/04 03:02:01;;;;;;;61.72;18.05;;;;;;;4.23;100.00;100182.72;2090068;28;20032;-67
2021/11/04 03:03:01;;;;;;;53.15;16.98;;;;;;;4.24;100.00;100189.56;2090116;28;20032;-67
2021/11/04 03:04:02;;;;;;;48.27;17.80;;;;;;;4.28;100.00;100187.75;2089513;28;20021;-67
2021/11/04 03:05:03;;;;;;;63.53;18.60;;;;;;;4.28;100.00;100187.75;2089500;28;20029;-67
2021/11/04 03:06:03;;;;;;;62.92;18.95;;;;;;;4.29;100.00;100192.91;2090089;28;20024;-67
2021/11/04 03:07:04;;;;;;;43.00;17.92;;;;;;;4.31;100.00;100193.69;2090133;28;20082;-67
2021/11/04 03:08:04;;;;;;;55.47;17.63;;;;;;;4.32;100.00;100192.81;2090133;28;20110;-67
2021/11/04 03:09:05;;;;;;;48.35;16.73;;;;;;;4.31;100.00;100191.09;2089333;28;20029;-67
2021/11/04 03:10:06;;;;;;;50.57;17.20;;;;;;;4.28;100.00;100191.22;2089584;28;20025;-67
2021/11/04 03:11:06;;;;;;;;;;;;;;;4.29;100.00;100185.16;2090511;28;20036;-67
2021/11/04 03:12:08;;;;;;;34.57;15.50;;;;;;;4.30;100.00;100180.81;2090115;28;20350;-67
2021/11/04 03:13:08;;;;;;;51.88;16.13;;;;;;;4.32;100.00;100190.22;2089411;28;20286;-67
2021/11/04 03:14:09;;;;;;;44.90;15.93;;;;;;;4.33;100.00;100188.47;2089510;28;20473;-67
2021/11/04 03:15:15;;;;;;;45.25;16.80;;;;;;;4.32;100.00;100187.66;2090166;28;20037;-67
2021/11/04 03:16:17;;;;;;;37.00;15.30;;;;;;;4.33;100.00;100191.06;2090131;28;20044;-67
2021/11/04 03:17:18;;;;;;;37.65;15.68;;;;;;;4.30;100.00;100189.41;2089422;28;20484;-67
2021/11/04 03:18:19;;;;;;;46.95;17.67;;;;;;;4.32;100.00;100191.97;2089502;28;20021;-67
2021/11/04 03:19:22;;;;;;;45.47;16.58;;;;;;;4.32;100.00;100192.81;2090078;28;20025;-67
2021/11/04 03:20:23;;;;;;;41.40;16.05;;;;;;;4.31;100.00;100196.25;2089372;28;20469;-67
2021/11/04 03:21:24;;;;;;;48.72;16.38;;;;;;;4.33;100.00;100198.81;2089537;28;20079;-67
2021/11/04 03:22:24;;;;;;;40.22;18.10;;;;;;;4.35;100.00;100202.22;2089249;28;20425;-67
2021/11/04 03:23:25;;;;;;;42.63;15.85;;;;;;;4.36;100.00;100203.91;2089496;28;20029;-67
2021/11/04 03:24:26;;;;;;;43.50;17.03;;;;;;;4.35;100.00;100202.22;2090046;28;20024;-67
2021/11/04 03:25:27;;;;;;;50.63;16.63;;;;;;;4.33;100.00;100209.16;2089968;28;20361;-67
2021/11/04 03:26:29;;;;;;;45.83;15.60;;;;;;;4.32;100.00;100213.47;2090044;28;20127;-67
2021/11/04 03:27:31;;;;;;;40.20;15.85;;;;;;;4.31;100.00;100210.94;2090063;28;20076;-67
2021/11/04 03:28:33;;;;;;;49.28;17.58;;;;;;;4.31;100.00;100216.94;2090074;28;20451;-68
2021/11/04 03:29:37;;;;;;;37.40;16.58;;;;;;;4.31;100.00;100214.34;2090027;28;20033;-68
2021/11/04 03:30:39;;;;;;;43.50;15.88;;;;;;;4.31;100.00;100211.78;2089984;28;20025;-67
2021/11/04 03:31:42;;;;;;;44.55;15.52;;;;;;;4.31;100.00;100216.94;2089971;28;20076;-67
2021/11/04 03:32:44;;;;;;;38.92;17.23;;;;;;;4.31;100.00;100216.09;2090023;28;20047;-67
2021/11/04 03:33:46;;;;;;;29.27;15.80;;;;;;;4.29;100.00;100218.72;2090081;28;20029;-67
2021/11/04 03:34:47;;;;;;;35.67;15.73;;;;;;;4.27;100.00;100225.66;2090031;28;20104;-67
2021/11/04 03:35:48;;;;;;;30.95;14.57;;;;;;;4.24;100.00;100224.00;2090052;28;20020;-67
2021/11/04 03:36:50;;;;;;;;;;;;;;;4.24;100.00;100217.97;2090472;28;20031;-67
2021/11/04 03:37:52;;;;;;;24.50;13.30;;;;;;;4.25;100.00;100227.44;2090066;28;20289;-67
2021/11/04 03:38:54;;;;;;;33.70;15.18;;;;;;;4.27;100.00;100215.31;2090005;28;20325;-67
2021/11/04 03:39:55;;;;;;;36.90;16.42;;;;;;;4.29;100.00;100223.03;2089364;28;20025;-67
2021/11/04 03:40:57;;;;;;;30.08;16.08;;;;;;;4.30;100.00;100224.72;2089419;28;20029;-67
2021/11/04 03:41:58;;;;;;;29.17;15.70;;;;;;;4.32;100.00;100218.66;2090024;28;20017;-67
2021/11/04 03:42:59;;;;;;;40.65;15.20;;;;;;;4.33;100.00;100220.34;2089367;28;20035;-67
2021/11/04 03:44:00;;;;;;;37.45;17.73;;;;;;;4.35;100.00;100223.72;2089365;28;20029;-67
2021/11/04 03:45:01;;;;;;;43.25;15.88;;;;;;;4.35;100.00;100226.28;2089288;28;20504;-67
2021/11/04 03:46:03;;;;;;;35.83;15.52;;;;;;;4.34;100.00;100222.03;2089879;28;20094;-67
2021/11/04 03:47:05;;;;;;;47.35;16.15;;;;;;;4.35;100.00;100226.28;2090036;28;20090;-67
2021/11/04 03:48:06;;;;;;;46.80;16.80;;;;;;;4.34;100.00;100232.38;2089947;28;20397;-67
2021/11/04 03:49:06;;;;;;;39.65;15.13;;;;;;;4.31;100.00;100227.28;2090020;28;20078;-66
2021/11/04 03:50:08;;;;;;;39.67;14.82;;;;;;;4.32;100.00;100231.56;2089982;28;20390;-67
2021/11/04 03:51:10;;;;;;;38.42;16.17;;;;;;;4.32;100.00;100228.13;2090797;28;20039;-67
2021/11/04 03:52:11;;;;;;;40.45;15.65;;;;;;;4.30;100.00;100230.75;2091462;28;20025;-67
2021/11/04 03:53:11;;;;;;;49.22;16.00;;;;;;;4.29;100.00;100231.66;2090824;28;20056;-67
2021/11/04 03:54:12;;;;;;;31.63;15.25;;;;;;;4.27;100.00;100230.00;2090884;28;20017;-67
2021/11/04 03:55:15;;;;;;;30.48;16.35;;;;;;;4.27;100.00;100223.06;2090926;28;20644;-67
2021/11/04 03:56:16;;;;;;;45.90;15.48;;;;;;;4.27;100.00;100230.81;2091507;28;20025;-67
2021/11/04 03:57:18;;;;;;;30.67;15.25;;;;;;;4.29;100.00;100238.53;2091379;28;20031;-66
2021/11/04 03:58:19;;;;;;;33.75;15.20;;;;;;;4.29;100.00;100233.38;2091382;28;20474;-67
2021/11/04 03:59:20;;;;;;;44.88;16.85;;;;;;;4.30;100.00;100235.91;2091383;28;20112;-67
2021/11/04 04:00:21;;;;;;;32.63;15.80;;;;;;;4.29;100.00;100235.94;2090698;28;20025;-67
2021/11/04 04:01:22;;;;;;;39.00;15.70;;;;;;;4.28;100.00;100229.97;2090841;28;20525;-66
2021/11/04 04:02:24;;;;;;;39.92;15.68;;;;;;;4.27;100.00;100228.25;2090800;28;20405;-67
2021/11/04 04:03:24;;;;;;;33.25;15.52;;;;;;;4.25;100.00;100227.44;2090846;28;20029;-67
2021/11/04 04:04:25;;;;;;;29.58;14.98;;;;;;;4.23;100.00;100232.66;2091496;28;20028;-67
2021/11/04 04:05:27;;;;;;;27.07;15.60;;;;;;;4.23;100.00;100224.91;2091347;28;20497;-67
2021/11/04 04:06:27;;;;;;;35.53;15.63;;;;;;;4.25;100.00;100232.63;2091358;28;20070;-67
2021/11/04 04:07:29;;;;;;;33.40;15.00;;;;;;;4.23;100.00;100234.38;2091465;28;20074;-68
2021/11/04 04:08:31;;;;;;;34.03;14.52;;;;;;;4.23;100.00;100237.81;2091368;28;20111;-67
2021/11/04 04:09:31;;;;;;;29.98;16.85;;;;;;;4.24;100.00;100239.50;2090658;28;20024;-67
2021/11/04 04:10:32;;;;;;;24.97;15.40;;;;;;;4.24;100.00;100236.06;2090837;28;20115;-67
2021/11/04 04:11:33;;;;;;;30.75;15.07;;;;;;;4.24;100.00;100246.38;2091377;28;20048;-66
2021/11/04 04:12:33;;;;;;;25.63;16.17;;;;;;;4.24;100.00;100242.09;2091347;28;20029;-66
2021/11/04 04:13:33;;;;;;;40.87;16.50;;;;;;;4.24;100.00;100242.09;2091583;28;20419;-65
2021/11/04 04:14:33;;;;;;;31.23;16.40;;;;;;;4.25;100.00;100243.78;2090697;28;20575;-66
2021/11/04 04:15:34;;;;;;;25.33;15.47;;;;;;;4.27;100.00;100246.31;2090832;28;20039;-66
2021/11/04 04:16:34;;;;;;;32.03;16.97;;;;;;;4.25;100.00;100238.59;2091337;28;20029;-66
2021/11/04 04:17:34;;;;;;;32.23;16.03;;;;;;;4.23;100.00;100245.56;2091459;28;20116;-67
2021/11/04 04:18:34;;;;;;;33.87;17.70;;;;;;;4.25;100.00;100243.78;2091460;28;20390;-66
2021/11/04 04:19:35;;;;;;;33.77;16.37;;;;;;;4.27;100.00;100245.50;2091457;28;20013;-65
2021/11/04 04:20:35;;;;;;;38.30;18.90;;;;;;;4.27;100.00;100245.50;2091488;28;20021;-66
2021/11/04 04:21:36;;;;;;;31.47;16.40;;;;;;;4.27;100.00;100251.50;2090637;28;20056;-66
2021/11/04 04:22:36;;;;;;;35.83;18.13;;;;;;;4.27;100.00;100243.75;2090749;28;20063;-66
2021/11/04 04:23:37;;;;;;;37.05;17.38;;;;;;;4.29;100.00;100244.56;2091429;28;20417;-65
2021/11/04 04:24:37;;;;;;;35.40;17.80;;;;;;;4.29;100.00;100239.41;2091308;28;20463;-66
2021/11/04 04:25:37;;;;;;;30.20;15.30;;;;;;;4.30;100.00;100246.25;2091324;28;20478;-65
2021/11/04 04:26:37;;;;;;;34.37;17.90;;;;;;;4.30;100.00;100248.84;2091194;28;20082;-65
2021/11/04 04:27:38;;;;;;;37.07;17.73;;;;;;;4.32;100.00;100243.63;2090538;28;20021;-66
2021/11/04 04:28:38;;;;;;;29.43;18.27;;;;;;;4.34;100.00;100241.84;2090609;28;20094;-66
2021/11/04 04:29:38;;;;;;;31.60;16.90;;;;;;;4.35;100.00;100253.88;2090661;28;20031;-66
2021/11/04 04:30:39;;;;;;;33.77;17.73;;;;;;;4.35;100.00;100239.22;2091175;28;20463;-66
2021/11/04 04:31:42;;;;;;;31.67;15.80;;;;;;;4.33;100.00;100246.19;2091255;28;20032;-66
2021/11/04 04:32:42;;;;;;;35.67;18.08;;;;;;;4.32;100.00;100239.31;2091184;28;20033;-65
2021/11/04 04:33:43;;;;;;;38.47;17.30;;;;;;;4.29;100.00;100239.41;2091143;28;20028;-66
2021/11/04 04:34:43;;;;;;;29.27;16.30;;;;;;;4.28;100.00;100237.72;2091147;28;20083;-66
2021/11/04 04:35:44;;;;;;;31.75;17.05;;;;;;;4.30;100.00;100235.06;2091194;28;20358;-66
2021/11/04 04:36:44;;;;;;;34.17;18.33;;;;;;;4.30;100.00;100240.22;2091179;28;20013;-67
2021/11/04 04:37:44;;;;;;;30.57;17.90;;;;;;;4.28;100.00;100236.84;2090547;28;20512;-65
2021/11/04 04:38:44;;;;;;;33.87;17.50;;;;;;;4.29;100.00;100239.41;2090544;28;20021;-67
2021/11/04 04:39:45;;;;;;;32.03;16.30;;;;;;;4.28;100.00;100237.72;2091196;28;20385;-67
2021/11/04 04:40:45;;;;;;;31.83;17.53;;;;;;;4.27;100.00;100238.56;2091151;28;20401;-66
2021/11/04 04:41:45;;;;;;;31.60;14.77;;;;;;;4.23;100.00;100239.53;2091087;28;20020;-65